sensor_id;sensor_type;location;lat;lon;timestamp;P1;durP1;ratioP1;P2;durP2;ratioP2
21833;SDS011;11079;51.092;3.458;2024-01-07T00:01:26;10.40;;;6.30;;
21833;SDS011;11079;51.092;3.458;2024-01-07T00:13:49;11.47;;;7.30;;
21833;SDS011;11079;51.092;3.458;2024-01-07T00:19:11;12.20;;;8.27;;
21833;SDS011;11079;51.092;3.458;2024-01-07T00:38:24;12.60;;;8.33;;
21833;SDS011;11079;51.092;3.458;2024-01-07T00:43:28;12.83;;;7.40;;
21833;SDS011;11079;51.092;3.458;2024-01-07T00:59:28;13.13;;;7.73;;
21833;SDS011;11079;51.092;3.458;2024-01-07T01:02:17;11.93;;;8.00;;
21833;SDS011;11079;51.092;3.458;2024-01-07T01:08:16;14.37;;;9.00;;
21833;SDS011;11079;51.092;3.458;2024-01-07T01:13:52;15.00;;;8.30;;
21833;SDS011;11079;51.092;3.458;2024-01-07T01:19:07;13.70;;;8.17;;
21833;SDS011;11079;51.092;3.458;2024-01-07T01:28:05;14.13;;;7.50;;
21833;SDS011;11079;51.092;3.458;2024-01-07T01:33:21;12.67;;;6.40;;
21833;SDS011;11079;51.092;3.458;2024-01-07T01:38:53;11.50;;;6.03;;
21833;SDS011;11079;51.092;3.458;2024-01-07T01:44:31;12.60;;;6.17;;
21833;SDS011;11079;51.092;3.458;2024-01-07T01:46:57;8.40;;;5.30;;
21833;SDS011;11079;51.092;3.458;2024-01-07T02:03:23;12.70;;;6.90;;
21833;SDS011;11079;51.092;3.458;2024-01-07T02:05:49;11.00;;;6.43;;
21833;SDS011;11079;51.092;3.458;2024-01-07T02:09:13;12.13;;;6.77;;
21833;SDS011;11079;51.092;3.458;2024-01-07T02:12:02;11.93;;;6.77;;
21833;SDS011;11079;51.092;3.458;2024-01-07T02:14:31;10.70;;;7.00;;
21833;SDS011;11079;51.092;3.458;2024-01-07T02:17:43;12.77;;;7.47;;
21833;SDS011;11079;51.092;3.458;2024-01-07T02:20:28;9.13;;;6.80;;
21833;SDS011;11079;51.092;3.458;2024-01-07T02:33:13;10.73;;;6.70;;
21833;SDS011;11079;51.092;3.458;2024-01-07T02:35:59;12.80;;;6.80;;
21833;SDS011;11079;51.092;3.458;2024-01-07T02:38:29;11.07;;;6.53;;
21833;SDS011;11079;51.092;3.458;2024-01-07T02:41:07;11.57;;;5.97;;
21833;SDS011;11079;51.092;3.458;2024-01-07T02:43:53;10.63;;;6.87;;
21833;SDS011;11079;51.092;3.458;2024-01-07T02:46:44;13.40;;;6.40;;
21833;SDS011;11079;51.092;3.458;2024-01-07T02:49:13;10.50;;;6.10;;
21833;SDS011;11079;51.092;3.458;2024-01-07T02:51:39;11.30;;;6.97;;
21833;SDS011;11079;51.092;3.458;2024-01-07T02:54:59;13.20;;;7.77;;
21833;SDS011;11079;51.092;3.458;2024-01-07T02:57:58;12.07;;;7.20;;
21833;SDS011;11079;51.092;3.458;2024-01-07T03:03:51;9.90;;;6.93;;
21833;SDS011;11079;51.092;3.458;2024-01-07T03:10:10;12.80;;;7.53;;
21833;SDS011;11079;51.092;3.458;2024-01-07T03:12:36;12.07;;;7.67;;
21833;SDS011;11079;51.092;3.458;2024-01-07T03:15:23;12.10;;;7.70;;
21833;SDS011;11079;51.092;3.458;2024-01-07T03:18:09;12.43;;;8.37;;
21833;SDS011;11079;51.092;3.458;2024-01-07T03:23:53;12.47;;;8.03;;
21833;SDS011;11079;51.092;3.458;2024-01-07T03:27:00;11.90;;;8.50;;
21833;SDS011;11079;51.092;3.458;2024-01-07T03:29:29;11.90;;;8.57;;
21833;SDS011;11079;51.092;3.458;2024-01-07T03:31:54;14.90;;;9.43;;
21833;SDS011;11079;51.092;3.458;2024-01-07T03:34:20;13.33;;;9.03;;
21833;SDS011;11079;51.092;3.458;2024-01-07T03:36:49;14.07;;;9.53;;
21833;SDS011;11079;51.092;3.458;2024-01-07T03:48:58;14.73;;;9.90;;
21833;SDS011;11079;51.092;3.458;2024-01-07T03:54:57;14.10;;;9.37;;
21833;SDS011;11079;51.092;3.458;2024-01-07T04:00:19;13.73;;;9.97;;
21833;SDS011;11079;51.092;3.458;2024-01-07T04:03:04;13.67;;;9.10;;
21833;SDS011;11079;51.092;3.458;2024-01-07T04:08:50;12.10;;;9.03;;
21833;SDS011;11079;51.092;3.458;2024-01-07T04:14:15;13.93;;;9.67;;
21833;SDS011;11079;51.092;3.458;2024-01-07T04:17:37;14.30;;;10.30;;
21833;SDS011;11079;51.092;3.458;2024-01-07T04:24:20;13.67;;;10.40;;
21833;SDS011;11079;51.092;3.458;2024-01-07T04:26:46;14.60;;;10.07;;
21833;SDS011;11079;51.092;3.458;2024-01-07T04:31:55;15.33;;;11.03;;
21833;SDS011;11079;51.092;3.458;2024-01-07T04:34:40;15.93;;;10.97;;
21833;SDS011;11079;51.092;3.458;2024-01-07T04:37:28;15.70;;;11.47;;
21833;SDS011;11079;51.092;3.458;2024-01-07T04:40:16;15.27;;;11.37;;
21833;SDS011;11079;51.092;3.458;2024-01-07T04:50:51;17.80;;;12.73;;
21833;SDS011;11079;51.092;3.458;2024-01-07T04:57:17;18.87;;;13.50;;
21833;SDS011;11079;51.092;3.458;2024-01-07T05:00:05;24.17;;;14.70;;
21833;SDS011;11079;51.092;3.458;2024-01-07T05:03:06;20.43;;;14.20;;
21833;SDS011;11079;51.092;3.458;2024-01-07T05:08:44;21.30;;;15.53;;
21833;SDS011;11079;51.092;3.458;2024-01-07T05:11:13;21.70;;;15.43;;
21833;SDS011;11079;51.092;3.458;2024-01-07T05:13:42;23.63;;;15.73;;
21833;SDS011;11079;51.092;3.458;2024-01-07T05:19:53;24.73;;;16.43;;
21833;SDS011;11079;51.092;3.458;2024-01-07T05:22:19;21.10;;;16.20;;
21833;SDS011;11079;51.092;3.458;2024-01-07T05:24:47;21.77;;;15.20;;
21833;SDS011;11079;51.092;3.458;2024-01-07T05:27:36;22.70;;;15.77;;
21833;SDS011;11079;51.092;3.458;2024-01-07T05:33:02;25.40;;;16.87;;
21833;SDS011;11079;51.092;3.458;2024-01-07T05:35:40;24.13;;;16.57;;
21833;SDS011;11079;51.092;3.458;2024-01-07T05:38:06;25.70;;;17.50;;
21833;SDS011;11079;51.092;3.458;2024-01-07T05:45:38;23.83;;;16.87;;
21833;SDS011;11079;51.092;3.458;2024-01-07T05:48:07;26.47;;;16.47;;
21833;SDS011;11079;51.092;3.458;2024-01-07T05:57:28;26.80;;;18.17;;
21833;SDS011;11079;51.092;3.458;2024-01-07T06:00:31;22.87;;;16.30;;
21833;SDS011;11079;51.092;3.458;2024-01-07T06:03:12;26.40;;;18.10;;
21833;SDS011;11079;51.092;3.458;2024-01-07T06:05:44;27.30;;;18.80;;
21833;SDS011;11079;51.092;3.458;2024-01-07T06:08:10;28.70;;;19.80;;
21833;SDS011;11079;51.092;3.458;2024-01-07T06:13:03;26.70;;;18.50;;
21833;SDS011;11079;51.092;3.458;2024-01-07T06:19:18;26.57;;;18.00;;
21833;SDS011;11079;51.092;3.458;2024-01-07T06:27:32;29.57;;;19.27;;
21833;SDS011;11079;51.092;3.458;2024-01-07T06:29:58;27.37;;;18.90;;
21833;SDS011;11079;51.092;3.458;2024-01-07T06:35:39;27.13;;;17.77;;
21833;SDS011;11079;51.092;3.458;2024-01-07T06:56:46;27.55;;;17.80;;
21833;SDS011;11079;51.092;3.458;2024-01-07T06:59:15;22.87;;;15.87;;
21833;SDS011;11079;51.092;3.458;2024-01-07T07:02:04;24.77;;;16.17;;
21833;SDS011;11079;51.092;3.458;2024-01-07T07:05:27;23.90;;;14.90;;
21833;SDS011;11079;51.092;3.458;2024-01-07T07:07:52;20.17;;;14.30;;
21833;SDS011;11079;51.092;3.458;2024-01-07T07:13:05;22.10;;;14.63;;
21833;SDS011;11079;51.092;3.458;2024-01-07T07:15:38;20.03;;;14.20;;
21833;SDS011;11079;51.092;3.458;2024-01-07T07:18:04;17.10;;;12.93;;
21833;SDS011;11079;51.092;3.458;2024-01-07T07:20:30;19.70;;;13.67;;
21833;SDS011;11079;51.092;3.458;2024-01-07T07:22:56;22.43;;;13.80;;
21833;SDS011;11079;51.092;3.458;2024-01-07T07:25:21;18.90;;;12.43;;
21833;SDS011;11079;51.092;3.458;2024-01-07T07:27:47;17.73;;;12.40;;
21833;SDS011;11079;51.092;3.458;2024-01-07T07:30:13;18.13;;;12.23;;
21833;SDS011;11079;51.092;3.458;2024-01-07T07:32:39;17.60;;;12.27;;
21833;SDS011;11079;51.092;3.458;2024-01-07T07:35:06;19.00;;;13.47;;
21833;SDS011;11079;51.092;3.458;2024-01-07T07:37:32;22.10;;;15.77;;
21833;SDS011;11079;51.092;3.458;2024-01-07T07:39:58;22.27;;;14.53;;
21833;SDS011;11079;51.092;3.458;2024-01-07T07:42:24;20.57;;;13.13;;
21833;SDS011;11079;51.092;3.458;2024-01-07T07:44:49;21.03;;;13.73;;
21833;SDS011;11079;51.092;3.458;2024-01-07T07:47:15;20.60;;;13.47;;
21833;SDS011;11079;51.092;3.458;2024-01-07T07:49:41;23.70;;;13.93;;
21833;SDS011;11079;51.092;3.458;2024-01-07T07:52:09;20.40;;;13.40;;
21833;SDS011;11079;51.092;3.458;2024-01-07T07:54:38;19.93;;;13.63;;
21833;SDS011;11079;51.092;3.458;2024-01-07T07:57:04;21.67;;;15.60;;
21833;SDS011;11079;51.092;3.458;2024-01-07T07:59:29;21.27;;;15.23;;
21833;SDS011;11079;51.092;3.458;2024-01-07T08:01:55;22.00;;;14.13;;
21833;SDS011;11079;51.092;3.458;2024-01-07T08:04:21;22.00;;;15.83;;
21833;SDS011;11079;51.092;3.458;2024-01-07T08:06:46;21.80;;;14.60;;
21833;SDS011;11079;51.092;3.458;2024-01-07T08:09:12;18.63;;;12.83;;
21833;SDS011;11079;51.092;3.458;2024-01-07T08:11:38;21.33;;;14.30;;
21833;SDS011;11079;51.092;3.458;2024-01-07T08:14:04;22.30;;;14.40;;
21833;SDS011;11079;51.092;3.458;2024-01-07T08:16:31;19.83;;;14.00;;
21833;SDS011;11079;51.092;3.458;2024-01-07T08:18:57;20.53;;;13.73;;
21833;SDS011;11079;51.092;3.458;2024-01-07T08:21:22;21.00;;;14.43;;
21833;SDS011;11079;51.092;3.458;2024-01-07T08:23:48;23.60;;;15.63;;
21833;SDS011;11079;51.092;3.458;2024-01-07T08:26:18;20.97;;;13.60;;
21833;SDS011;11079;51.092;3.458;2024-01-07T08:28:44;19.17;;;13.33;;
21833;SDS011;11079;51.092;3.458;2024-01-07T08:31:10;21.90;;;14.10;;
21833;SDS011;11079;51.092;3.458;2024-01-07T08:33:36;22.37;;;14.80;;
21833;SDS011;11079;51.092;3.458;2024-01-07T08:36:01;23.93;;;14.97;;
21833;SDS011;11079;51.092;3.458;2024-01-07T08:38:27;22.30;;;14.40;;
21833;SDS011;11079;51.092;3.458;2024-01-07T08:40:52;22.37;;;14.33;;
21833;SDS011;11079;51.092;3.458;2024-01-07T08:43:18;25.77;;;15.37;;
21833;SDS011;11079;51.092;3.458;2024-01-07T08:45:44;21.10;;;13.87;;
21833;SDS011;11079;51.092;3.458;2024-01-07T08:48:09;23.47;;;15.13;;
21833;SDS011;11079;51.092;3.458;2024-01-07T08:50:37;24.73;;;15.07;;
21833;SDS011;11079;51.092;3.458;2024-01-07T08:53:03;25.07;;;15.60;;
21833;SDS011;11079;51.092;3.458;2024-01-07T08:55:29;25.03;;;15.80;;
21833;SDS011;11079;51.092;3.458;2024-01-07T08:57:54;23.00;;;15.23;;
21833;SDS011;11079;51.092;3.458;2024-01-07T09:00:20;27.37;;;16.50;;
21833;SDS011;11079;51.092;3.458;2024-01-07T09:02:50;27.43;;;16.83;;
21833;SDS011;11079;51.092;3.458;2024-01-07T09:05:16;23.83;;;15.87;;
21833;SDS011;11079;51.092;3.458;2024-01-07T09:07:42;30.43;;;17.60;;
21833;SDS011;11079;51.092;3.458;2024-01-07T09:10:08;28.33;;;17.50;;
21833;SDS011;11079;51.092;3.458;2024-01-07T09:12:39;28.10;;;17.50;;
21833;SDS011;11079;51.092;3.458;2024-01-07T09:15:05;25.93;;;15.77;;
21833;SDS011;11079;51.092;3.458;2024-01-07T09:17:35;26.87;;;17.00;;
21833;SDS011;11079;51.092;3.458;2024-01-07T09:20:06;27.80;;;17.10;;
21833;SDS011;11079;51.092;3.458;2024-01-07T09:22:33;25.43;;;15.80;;
21833;SDS011;11079;51.092;3.458;2024-01-07T09:25:01;25.13;;;15.73;;
21833;SDS011;11079;51.092;3.458;2024-01-07T09:27:30;25.93;;;16.07;;
21833;SDS011;11079;51.092;3.458;2024-01-07T09:29:56;28.67;;;15.93;;
21833;SDS011;11079;51.092;3.458;2024-01-07T09:32:22;22.03;;;14.00;;
21833;SDS011;11079;51.092;3.458;2024-01-07T09:34:48;25.77;;;16.67;;
21833;SDS011;11079;51.092;3.458;2024-01-07T09:37:14;22.90;;;14.20;;
21833;SDS011;11079;51.092;3.458;2024-01-07T09:39:41;26.47;;;15.73;;
21833;SDS011;11079;51.092;3.458;2024-01-07T09:42:12;24.00;;;15.30;;
21833;SDS011;11079;51.092;3.458;2024-01-07T09:44:41;22.80;;;14.73;;
21833;SDS011;11079;51.092;3.458;2024-01-07T09:47:11;24.87;;;16.33;;
21833;SDS011;11079;51.092;3.458;2024-01-07T09:49:40;21.77;;;13.83;;
21833;SDS011;11079;51.092;3.458;2024-01-07T09:52:07;22.67;;;15.57;;
21833;SDS011;11079;51.092;3.458;2024-01-07T09:54:35;27.53;;;16.30;;
21833;SDS011;11079;51.092;3.458;2024-01-07T09:57:03;27.17;;;16.43;;
21833;SDS011;11079;51.092;3.458;2024-01-07T09:59:34;26.33;;;15.97;;
21833;SDS011;11079;51.092;3.458;2024-01-07T10:02:01;27.53;;;16.67;;
21833;SDS011;11079;51.092;3.458;2024-01-07T10:04:28;30.23;;;17.57;;
21833;SDS011;11079;51.092;3.458;2024-01-07T10:07:12;27.83;;;16.53;;
21833;SDS011;11079;51.092;3.458;2024-01-07T10:09:40;26.43;;;16.80;;
21833;SDS011;11079;51.092;3.458;2024-01-07T10:12:07;26.57;;;17.73;;
21833;SDS011;11079;51.092;3.458;2024-01-07T10:14:33;27.53;;;17.13;;
21833;SDS011;11079;51.092;3.458;2024-01-07T10:16:59;26.03;;;17.10;;
21833;SDS011;11079;51.092;3.458;2024-01-07T10:19:26;25.27;;;16.17;;
21833;SDS011;11079;51.092;3.458;2024-01-07T10:21:58;29.23;;;15.87;;
21833;SDS011;11079;51.092;3.458;2024-01-07T10:24:26;26.63;;;17.10;;
21833;SDS011;11079;51.092;3.458;2024-01-07T10:26:52;25.90;;;16.37;;
21833;SDS011;11079;51.092;3.458;2024-01-07T10:32:26;28.50;;;18.70;;
21833;SDS011;11079;51.092;3.458;2024-01-07T10:38:10;24.03;;;16.03;;
21833;SDS011;11079;51.092;3.458;2024-01-07T10:40:37;25.03;;;16.50;;
21833;SDS011;11079;51.092;3.458;2024-01-07T10:43:04;23.67;;;15.90;;
21833;SDS011;11079;51.092;3.458;2024-01-07T10:45:30;26.40;;;16.80;;
21833;SDS011;11079;51.092;3.458;2024-01-07T10:47:57;23.93;;;16.10;;
21833;SDS011;11079;51.092;3.458;2024-01-07T10:50:27;25.80;;;16.70;;
21833;SDS011;11079;51.092;3.458;2024-01-07T10:52:57;24.40;;;16.13;;
21833;SDS011;11079;51.092;3.458;2024-01-07T10:55:33;31.50;;;17.10;;
21833;SDS011;11079;51.092;3.458;2024-01-07T10:58:03;27.40;;;16.67;;
21833;SDS011;11079;51.092;3.458;2024-01-07T11:00:29;26.80;;;15.37;;
21833;SDS011;11079;51.092;3.458;2024-01-07T11:12:06;28.07;;;17.43;;
21833;SDS011;11079;51.092;3.458;2024-01-07T11:14:52;28.00;;;17.73;;
21833;SDS011;11079;51.092;3.458;2024-01-07T11:20:12;28.23;;;16.73;;
21833;SDS011;11079;51.092;3.458;2024-01-07T11:23:34;27.17;;;17.67;;
21833;SDS011;11079;51.092;3.458;2024-01-07T11:26:22;25.70;;;17.53;;
21833;SDS011;11079;51.092;3.458;2024-01-07T11:29:07;23.77;;;15.40;;
21833;SDS011;11079;51.092;3.458;2024-01-07T11:32:19;25.47;;;17.07;;
21833;SDS011;11079;51.092;3.458;2024-01-07T11:35:04;29.37;;;16.63;;
21833;SDS011;11079;51.092;3.458;2024-01-07T11:37:43;26.03;;;18.40;;
21833;SDS011;11079;51.092;3.458;2024-01-07T11:40:21;23.40;;;16.17;;
21833;SDS011;11079;51.092;3.458;2024-01-07T11:45:44;26.97;;;17.27;;
21833;SDS011;11079;51.092;3.458;2024-01-07T11:48:10;27.63;;;17.07;;
21833;SDS011;11079;51.092;3.458;2024-01-07T11:50:37;25.77;;;15.60;;
21833;SDS011;11079;51.092;3.458;2024-01-07T11:53:04;28.30;;;17.83;;
21833;SDS011;11079;51.092;3.458;2024-01-07T11:55:30;27.53;;;17.47;;
21833;SDS011;11079;51.092;3.458;2024-01-07T11:58:00;26.37;;;16.17;;
21833;SDS011;11079;51.092;3.458;2024-01-07T12:00:33;24.73;;;17.27;;
21833;SDS011;11079;51.092;3.458;2024-01-07T12:03:00;28.33;;;16.83;;
21833;SDS011;11079;51.092;3.458;2024-01-07T12:05:29;25.00;;;16.00;;
21833;SDS011;11079;51.092;3.458;2024-01-07T12:08:27;24.80;;;16.20;;
21833;SDS011;11079;51.092;3.458;2024-01-07T12:11:14;26.70;;;16.60;;
21833;SDS011;11079;51.092;3.458;2024-01-07T12:13:45;24.17;;;17.10;;
21833;SDS011;11079;51.092;3.458;2024-01-07T12:16:15;28.30;;;17.17;;
21833;SDS011;11079;51.092;3.458;2024-01-07T12:18:42;24.13;;;16.43;;
21833;SDS011;11079;51.092;3.458;2024-01-07T12:22:06;25.70;;;15.97;;
21833;SDS011;11079;51.092;3.458;2024-01-07T12:24:35;24.50;;;16.33;;
21833;SDS011;11079;51.092;3.458;2024-01-07T12:27:06;26.43;;;17.13;;
21833;SDS011;11079;51.092;3.458;2024-01-07T12:29:33;24.13;;;17.10;;
21833;SDS011;11079;51.092;3.458;2024-01-07T12:32:27;25.27;;;17.03;;
21833;SDS011;11079;51.092;3.458;2024-01-07T12:38:01;25.20;;;17.17;;
21833;SDS011;11079;51.092;3.458;2024-01-07T12:40:55;22.40;;;16.90;;
21833;SDS011;11079;51.092;3.458;2024-01-07T12:43:22;27.77;;;20.20;;
21833;SDS011;11079;51.092;3.458;2024-01-07T12:51:52;27.77;;;17.00;;
21833;SDS011;11079;51.092;3.458;2024-01-07T12:57:34;25.40;;;17.13;;
21833;SDS011;11079;51.092;3.458;2024-01-07T13:04:19;26.17;;;17.07;;
21833;SDS011;11079;51.092;3.458;2024-01-07T13:10:45;24.80;;;15.73;;
21833;SDS011;11079;51.092;3.458;2024-01-07T13:16:33;25.33;;;16.70;;
21833;SDS011;11079;51.092;3.458;2024-01-07T13:19:45;22.80;;;15.87;;
21833;SDS011;11079;51.092;3.458;2024-01-07T13:22:12;25.37;;;16.50;;
21833;SDS011;11079;51.092;3.458;2024-01-07T13:24:38;26.93;;;16.47;;
21833;SDS011;11079;51.092;3.458;2024-01-07T13:27:13;23.87;;;16.57;;
21833;SDS011;11079;51.092;3.458;2024-01-07T13:29:39;25.77;;;16.67;;
21833;SDS011;11079;51.092;3.458;2024-01-07T13:32:15;24.20;;;16.47;;
21833;SDS011;11079;51.092;3.458;2024-01-07T13:34:43;20.27;;;14.97;;
21833;SDS011;11079;51.092;3.458;2024-01-07T13:40:09;21.40;;;14.60;;
21833;SDS011;11079;51.092;3.458;2024-01-07T13:42:39;20.37;;;14.23;;
21833;SDS011;11079;51.092;3.458;2024-01-07T13:45:05;19.13;;;14.00;;
21833;SDS011;11079;51.092;3.458;2024-01-07T13:50:26;19.33;;;14.57;;
21833;SDS011;11079;51.092;3.458;2024-01-07T13:52:58;22.63;;;14.57;;
21833;SDS011;11079;51.092;3.458;2024-01-07T13:55:25;19.40;;;13.13;;
21833;SDS011;11079;51.092;3.458;2024-01-07T13:57:51;18.83;;;12.97;;
21833;SDS011;11079;51.092;3.458;2024-01-07T14:00:20;19.93;;;13.67;;
21833;SDS011;11079;51.092;3.458;2024-01-07T14:05:59;19.63;;;14.23;;
21833;SDS011;11079;51.092;3.458;2024-01-07T14:08:31;19.60;;;14.13;;
21833;SDS011;11079;51.092;3.458;2024-01-07T14:11:20;19.80;;;14.03;;
21833;SDS011;11079;51.092;3.458;2024-01-07T14:18:07;16.93;;;13.40;;
21833;SDS011;11079;51.092;3.458;2024-01-07T14:20:42;19.30;;;13.73;;
21833;SDS011;11079;51.092;3.458;2024-01-07T14:23:08;19.83;;;13.83;;
21833;SDS011;11079;51.092;3.458;2024-01-07T14:25:38;20.40;;;14.53;;
21833;SDS011;11079;51.092;3.458;2024-01-07T14:28:26;18.63;;;13.10;;
21833;SDS011;11079;51.092;3.458;2024-01-07T14:30:52;20.63;;;13.67;;
21833;SDS011;11079;51.092;3.458;2024-01-07T14:33:19;17.93;;;13.23;;
21833;SDS011;11079;51.092;3.458;2024-01-07T14:35:45;20.40;;;13.77;;
21833;SDS011;11079;51.092;3.458;2024-01-07T14:41:33;21.00;;;13.80;;
21833;SDS011;11079;51.092;3.458;2024-01-07T14:43:59;17.47;;;13.23;;
21833;SDS011;11079;51.092;3.458;2024-01-07T14:46:29;21.93;;;14.83;;
21833;SDS011;11079;51.092;3.458;2024-01-07T14:48:55;20.80;;;14.57;;
21833;SDS011;11079;51.092;3.458;2024-01-07T14:51:24;20.83;;;13.80;;
21833;SDS011;11079;51.092;3.458;2024-01-07T14:53:49;18.77;;;14.30;;
21833;SDS011;11079;51.092;3.458;2024-01-07T14:56:48;25.70;;;13.40;;
21833;SDS011;11079;51.092;3.458;2024-01-07T14:59:20;20.67;;;14.60;;
21833;SDS011;11079;51.092;3.458;2024-01-07T15:01:47;19.93;;;13.57;;
21833;SDS011;11079;51.092;3.458;2024-01-07T15:04:24;21.53;;;13.73;;
21833;SDS011;11079;51.092;3.458;2024-01-07T15:07:12;21.13;;;12.80;;
21833;SDS011;11079;51.092;3.458;2024-01-07T15:09:46;18.97;;;13.90;;
21833;SDS011;11079;51.092;3.458;2024-01-07T15:12:20;17.63;;;12.07;;
21833;SDS011;11079;51.092;3.458;2024-01-07T15:15:05;20.53;;;13.60;;
21833;SDS011;11079;51.092;3.458;2024-01-07T15:17:33;19.07;;;12.90;;
21833;SDS011;11079;51.092;3.458;2024-01-07T15:20:00;24.73;;;13.73;;
21833;SDS011;11079;51.092;3.458;2024-01-07T15:22:49;19.90;;;13.93;;
21833;SDS011;11079;51.092;3.458;2024-01-07T15:25:15;21.77;;;13.93;;
21833;SDS011;11079;51.092;3.458;2024-01-07T15:27:42;19.47;;;12.53;;
21833;SDS011;11079;51.092;3.458;2024-01-07T15:30:10;20.07;;;13.33;;
21833;SDS011;11079;51.092;3.458;2024-01-07T15:32:36;17.13;;;11.87;;
21833;SDS011;11079;51.092;3.458;2024-01-07T15:35:03;17.93;;;12.80;;
21833;SDS011;11079;51.092;3.458;2024-01-07T15:37:30;20.13;;;13.13;;
21833;SDS011;11079;51.092;3.458;2024-01-07T15:39:58;18.37;;;11.90;;
21833;SDS011;11079;51.092;3.458;2024-01-07T15:42:41;18.67;;;12.00;;
21833;SDS011;11079;51.092;3.458;2024-01-07T15:45:10;17.60;;;11.93;;
21833;SDS011;11079;51.092;3.458;2024-01-07T15:47:36;18.97;;;12.93;;
21833;SDS011;11079;51.092;3.458;2024-01-07T15:50:02;19.10;;;13.10;;
21833;SDS011;11079;51.092;3.458;2024-01-07T15:52:31;19.70;;;13.17;;
21833;SDS011;11079;51.092;3.458;2024-01-07T15:55:00;17.87;;;13.27;;
21833;SDS011;11079;51.092;3.458;2024-01-07T15:58:22;18.20;;;12.93;;
21833;SDS011;11079;51.092;3.458;2024-01-07T16:04:10;17.93;;;12.37;;
21833;SDS011;11079;51.092;3.458;2024-01-07T16:06:53;18.07;;;11.17;;
21833;SDS011;11079;51.092;3.458;2024-01-07T16:09:22;15.70;;;11.50;;
21833;SDS011;11079;51.092;3.458;2024-01-07T16:12:00;13.40;;;10.83;;
21833;SDS011;11079;51.092;3.458;2024-01-07T16:14:27;15.33;;;11.10;;
21833;SDS011;11079;51.092;3.458;2024-01-07T16:17:14;13.47;;;10.23;;
21833;SDS011;11079;51.092;3.458;2024-01-07T16:19:41;13.67;;;10.37;;
21833;SDS011;11079;51.092;3.458;2024-01-07T16:22:53;12.73;;;8.80;;
21833;SDS011;11079;51.092;3.458;2024-01-07T16:33:01;8.30;;;6.23;;
21833;SDS011;11079;51.092;3.458;2024-01-07T16:35:29;7.53;;;5.83;;
21833;SDS011;11079;51.092;3.458;2024-01-07T16:37:55;8.37;;;5.63;;
21833;SDS011;11079;51.092;3.458;2024-01-07T16:40:21;8.03;;;6.00;;
21833;SDS011;11079;51.092;3.458;2024-01-07T16:49:13;6.67;;;5.13;;
21833;SDS011;11079;51.092;3.458;2024-01-07T16:52:51;5.97;;;4.73;;
21833;SDS011;11079;51.092;3.458;2024-01-07T16:55:19;7.83;;;4.90;;
21833;SDS011;11079;51.092;3.458;2024-01-07T16:57:52;6.80;;;5.07;;
21833;SDS011;11079;51.092;3.458;2024-01-07T17:00:17;7.50;;;5.57;;
21833;SDS011;11079;51.092;3.458;2024-01-07T17:03:06;6.83;;;5.07;;
21833;SDS011;11079;51.092;3.458;2024-01-07T17:05:47;7.23;;;4.83;;
21833;SDS011;11079;51.092;3.458;2024-01-07T17:08:13;9.77;;;5.20;;
21833;SDS011;11079;51.092;3.458;2024-01-07T17:10:39;6.67;;;5.00;;
21833;SDS011;11079;51.092;3.458;2024-01-07T17:16:50;6.33;;;4.03;;
21833;SDS011;11079;51.092;3.458;2024-01-07T17:25:23;6.30;;;3.83;;
21833;SDS011;11079;51.092;3.458;2024-01-07T17:27:53;9.60;;;4.67;;
21833;SDS011;11079;51.092;3.458;2024-01-07T17:30:21;6.53;;;5.17;;
21833;SDS011;11079;51.092;3.458;2024-01-07T17:33:05;6.30;;;4.07;;
21833;SDS011;11079;51.092;3.458;2024-01-07T17:35:57;8.07;;;3.63;;
21833;SDS011;11079;51.092;3.458;2024-01-07T17:38:23;5.00;;;3.53;;
21833;SDS011;11079;51.092;3.458;2024-01-07T17:43:23;6.87;;;4.40;;
21833;SDS011;11079;51.092;3.458;2024-01-07T17:46:11;8.37;;;3.73;;
21833;SDS011;11079;51.092;3.458;2024-01-07T17:48:37;5.63;;;3.67;;
21833;SDS011;11079;51.092;3.458;2024-01-07T17:51:08;5.93;;;4.30;;
21833;SDS011;11079;51.092;3.458;2024-01-07T17:53:48;6.57;;;4.23;;
21833;SDS011;11079;51.092;3.458;2024-01-07T17:56:18;6.37;;;4.00;;
21833;SDS011;11079;51.092;3.458;2024-01-07T17:59:40;5.73;;;3.53;;
21833;SDS011;11079;51.092;3.458;2024-01-07T18:02:06;6.33;;;4.10;;
21833;SDS011;11079;51.092;3.458;2024-01-07T18:04:36;5.30;;;3.80;;
21833;SDS011;11079;51.092;3.458;2024-01-07T18:07:24;5.13;;;3.80;;
21833;SDS011;11079;51.092;3.458;2024-01-07T18:09:53;4.87;;;3.60;;
21833;SDS011;11079;51.092;3.458;2024-01-07T18:12:22;5.03;;;3.37;;
21833;SDS011;11079;51.092;3.458;2024-01-07T18:14:56;7.03;;;4.30;;
21833;SDS011;11079;51.092;3.458;2024-01-07T18:17:22;3.87;;;3.47;;
21833;SDS011;11079;51.092;3.458;2024-01-07T18:20:14;4.10;;;3.70;;
21833;SDS011;11079;51.092;3.458;2024-01-07T18:26:29;4.47;;;3.90;;
21833;SDS011;11079;51.092;3.458;2024-01-07T18:32:05;5.10;;;3.67;;
21833;SDS011;11079;51.092;3.458;2024-01-07T18:40:42;4.23;;;3.43;;
21833;SDS011;11079;51.092;3.458;2024-01-07T18:43:07;4.33;;;3.17;;
21833;SDS011;11079;51.092;3.458;2024-01-07T18:46:26;5.23;;;3.53;;
21833;SDS011;11079;51.092;3.458;2024-01-07T18:49:49;6.53;;;3.20;;
21833;SDS011;11079;51.092;3.458;2024-01-07T18:52:15;4.33;;;3.67;;
21833;SDS011;11079;51.092;3.458;2024-01-07T18:55:01;5.30;;;3.60;;
21833;SDS011;11079;51.092;3.458;2024-01-07T18:57:49;4.03;;;3.27;;
21833;SDS011;11079;51.092;3.458;2024-01-07T19:00:35;4.73;;;3.10;;
21833;SDS011;11079;51.092;3.458;2024-01-07T19:06:16;3.73;;;3.00;;
21833;SDS011;11079;51.092;3.458;2024-01-07T19:09:10;5.00;;;3.47;;
21833;SDS011;11079;51.092;3.458;2024-01-07T19:11:36;6.33;;;3.97;;
21833;SDS011;11079;51.092;3.458;2024-01-07T19:14:08;5.80;;;4.20;;
21833;SDS011;11079;51.092;3.458;2024-01-07T19:16:33;6.17;;;3.40;;
21833;SDS011;11079;51.092;3.458;2024-01-07T19:18:59;5.37;;;3.63;;
21833;SDS011;11079;51.092;3.458;2024-01-07T19:21:25;3.37;;;2.93;;
21833;SDS011;11079;51.092;3.458;2024-01-07T19:23:51;4.87;;;3.50;;
21833;SDS011;11079;51.092;3.458;2024-01-07T19:26:17;5.33;;;4.00;;
21833;SDS011;11079;51.092;3.458;2024-01-07T19:28:42;3.67;;;2.93;;
21833;SDS011;11079;51.092;3.458;2024-01-07T19:31:08;5.17;;;3.80;;
21833;SDS011;11079;51.092;3.458;2024-01-07T19:33:34;4.90;;;3.50;;
21833;SDS011;11079;51.092;3.458;2024-01-07T19:36:05;5.97;;;3.70;;
21833;SDS011;11079;51.092;3.458;2024-01-07T19:38:31;5.30;;;4.00;;
21833;SDS011;11079;51.092;3.458;2024-01-07T19:40:57;5.23;;;3.80;;
21833;SDS011;11079;51.092;3.458;2024-01-07T19:43:23;6.57;;;3.70;;
21833;SDS011;11079;51.092;3.458;2024-01-07T19:45:48;5.40;;;4.10;;
21833;SDS011;11079;51.092;3.458;2024-01-07T19:48:15;6.00;;;4.50;;
21833;SDS011;11079;51.092;3.458;2024-01-07T19:50:44;5.73;;;4.17;;
21833;SDS011;11079;51.092;3.458;2024-01-07T19:53:12;6.43;;;4.83;;
21833;SDS011;11079;51.092;3.458;2024-01-07T19:55:39;6.63;;;3.80;;
21833;SDS011;11079;51.092;3.458;2024-01-07T19:58:06;4.87;;;3.63;;
21833;SDS011;11079;51.092;3.458;2024-01-07T20:00:35;6.50;;;3.90;;
21833;SDS011;11079;51.092;3.458;2024-01-07T20:03:02;5.20;;;3.97;;
21833;SDS011;11079;51.092;3.458;2024-01-07T20:05:27;9.53;;;3.80;;
21833;SDS011;11079;51.092;3.458;2024-01-07T20:07:53;5.20;;;3.83;;
21833;SDS011;11079;51.092;3.458;2024-01-07T20:10:19;5.10;;;3.57;;
21833;SDS011;11079;51.092;3.458;2024-01-07T20:12:44;7.37;;;3.80;;
21833;SDS011;11079;51.092;3.458;2024-01-07T20:15:10;5.33;;;4.00;;